createdAt,value
2023-04-01T00:01:11.900Z,12.51
2023-04-01T00:03:58.792Z,12.51
2023-04-01T00:06:45.704Z,12.53
2023-04-01T00:09:33.641Z,12.51
2023-04-01T00:12:20.437Z,12.54
2023-04-01T00:15:10.317Z,12.56
2023-04-01T00:17:57.283Z,12.56
2023-04-01T00:20:46.558Z,12.54
2023-04-01T00:23:33.200Z,12.61
2023-04-01T00:26:23.009Z,12.62
2023-04-01T00:29:10.169Z,12.54
2023-04-01T00:31:57.984Z,12.50
2023-04-01T00:34:45.426Z,12.55
2023-04-01T00:37:32.308Z,12.53
2023-04-01T00:40:27.344Z,12.46
2023-04-01T00:43:19.439Z,12.46
2023-04-01T00:46:06.222Z,12.63
2023-04-01T00:48:57.264Z,12.70
2023-04-01T00:51:47.397Z,12.64
2023-04-01T00:54:35.017Z,12.62
2023-04-01T00:57:27.651Z,12.62
2023-04-01T01:00:17.011Z,12.61
2023-04-01T01:03:04.129Z,12.61
2023-04-01T01:06:11.794Z,12.72
2023-04-01T01:09:15.118Z,12.71
2023-04-01T01:12:09.804Z,12.64
2023-04-01T01:15:04.464Z,12.68
2023-04-01T01:18:04.382Z,12.64
2023-04-01T01:21:08.349Z,12.62
2023-04-01T01:24:12.001Z,12.58
2023-04-01T01:27:04.820Z,12.58
2023-04-01T01:30:15.190Z,12.54
2023-04-01T01:33:24.738Z,12.43
2023-04-01T01:36:16.283Z,12.60
2023-04-01T01:39:05.067Z,12.61
2023-04-01T01:41:52.207Z,12.63
2023-04-01T01:44:40.534Z,12.65
2023-04-01T01:47:28.058Z,12.74
2023-04-01T01:50:16.135Z,12.76
2023-04-01T01:53:06.303Z,12.64
2023-04-01T01:55:53.228Z,12.60
2023-04-01T01:58:44.189Z,12.61
2023-04-01T02:01:38.281Z,12.59
2023-04-01T02:04:31.192Z,12.58
2023-04-01T02:07:22.963Z,12.57
2023-04-01T02:10:11.792Z,12.55
2023-04-01T02:13:04.186Z,12.53
2023-04-01T02:15:53.648Z,12.52
2023-04-01T02:18:41.584Z,12.43
2023-04-01T02:21:32.884Z,12.37
2023-04-01T02:24:22.300Z,12.55
2023-04-01T02:27:11.802Z,12.48
2023-04-01T02:29:59.741Z,12.50
2023-04-01T02:32:47.880Z,12.50
2023-04-01T02:35:37.200Z,12.40
2023-04-01T02:38:24.286Z,12.34
2023-04-01T02:41:11.316Z,12.36
2023-04-01T02:44:00.458Z,12.40
2023-04-01T02:46:47.015Z,12.40
2023-04-01T02:49:33.818Z,12.35
2023-04-01T02:52:20.715Z,12.34
2023-04-01T02:55:08.656Z,12.34
2023-04-01T02:57:55.084Z,12.32
2023-04-01T03:00:43.264Z,12.22
2023-04-01T03:03:29.981Z,12.21
2023-04-01T03:06:18.608Z,12.27
2023-04-01T03:09:05.578Z,12.37
2023-04-01T03:11:52.366Z,12.33
2023-04-01T03:14:39.152Z,12.28
2023-04-01T03:17:27.280Z,12.31
2023-04-01T03:20:16.092Z,12.34
2023-04-01T03:23:02.506Z,12.37
2023-04-01T03:25:49.386Z,12.17
2023-04-01T03:28:36.470Z,12.34
2023-04-01T03:31:24.000Z,12.34
2023-04-01T03:34:16.188Z,12.34
2023-04-01T03:37:02.897Z,12.33
2023-04-01T03:39:50.761Z,12.34
2023-04-01T03:42:37.432Z,12.39
2023-04-01T03:45:24.262Z,12.42
2023-04-01T03:48:11.075Z,12.41
2023-04-01T03:50:59.254Z,12.40
2023-04-01T03:53:46.324Z,12.36
2023-04-01T03:56:32.674Z,12.39
2023-04-01T03:59:19.453Z,12.38
2023-04-01T04:02:06.507Z,12.38
2023-04-01T04:04:53.723Z,12.40
2023-04-01T04:07:42.350Z,12.44
2023-04-01T04:10:30.309Z,12.45
2023-04-01T04:13:17.247Z,12.50
2023-04-01T04:16:11.266Z,12.54
2023-04-01T04:19:02.532Z,12.54
2023-04-01T04:21:49.201Z,12.49
2023-04-01T04:24:38.198Z,12.48
2023-04-01T04:27:32.584Z,12.50
2023-04-01T04:30:37.594Z,12.50
2023-04-01T04:33:25.517Z,12.48
2023-04-01T04:36:12.458Z,12.48
2023-04-01T04:39:02.981Z,12.48
2023-04-01T04:41:52.040Z,12.53
2023-04-01T04:44:39.420Z,12.59
2023-04-01T04:47:26.617Z,12.61
2023-04-01T04:50:14.093Z,12.60
2023-04-01T04:53:01.334Z,12.63
2023-04-01T04:55:49.860Z,12.64
2023-04-01T04:58:56.976Z,12.65
2023-04-01T05:01:53.913Z,12.68
2023-04-01T05:04:40.682Z,12.63
2023-04-01T05:07:30.171Z,12.49
2023-04-01T05:10:17.046Z,12.63
2023-04-01T05:13:04.778Z,12.63
2023-04-01T05:15:53.373Z,12.62
2023-04-01T05:18:40.901Z,12.62
2023-04-01T05:21:27.602Z,12.65
2023-04-01T05:24:15.829Z,12.75
2023-04-01T05:27:02.646Z,12.76
2023-04-01T05:29:49.976Z,12.75
2023-04-01T05:32:57.720Z,12.65
2023-04-01T05:35:44.467Z,12.65
2023-04-01T05:38:33.087Z,12.66
2023-04-01T05:41:20.022Z,12.86
2023-04-01T05:44:08.128Z,12.61
2023-04-01T05:47:19.770Z,12.37
2023-04-01T05:50:10.156Z,12.33
2023-04-01T05:52:58.605Z,12.37
2023-04-01T05:55:47.563Z,12.28
2023-04-01T05:58:36.206Z,12.47
2023-04-01T06:01:24.824Z,12.48
2023-04-01T06:04:16.908Z,12.27
2023-04-01T06:07:14.674Z,12.41
2023-04-01T06:10:02.603Z,12.36
2023-04-01T06:12:57.463Z,12.22
2023-04-01T06:15:57.146Z,12.26
2023-04-01T06:19:16.264Z,12.05
2023-04-01T06:22:37.817Z,12.08
2023-04-01T06:25:39.171Z,12.04
2023-04-01T06:28:47.463Z,12.12
2023-04-01T06:31:53.913Z,11.87
2023-04-01T06:35:02.675Z,11.73
2023-04-01T06:38:23.757Z,11.72
2023-04-01T06:41:36.049Z,11.29
2023-04-01T06:44:38.802Z,11.52
2023-04-01T06:47:57.861Z,11.35
2023-04-01T06:51:16.402Z,11.54
2023-04-01T06:54:28.086Z,11.35
2023-04-01T06:57:33.270Z,11.59
2023-04-01T07:00:28.327Z,11.78
2023-04-01T07:03:23.477Z,11.48
2023-04-01T07:06:16.681Z,11.46
2023-04-01T07:09:16.940Z,11.33
2023-04-01T07:12:40.070Z,11.10
2023-04-01T07:15:52.304Z,11.29
2023-04-01T07:18:44.501Z,11.32
2023-04-01T07:21:36.794Z,11.61
2023-04-01T07:24:38.071Z,11.80
2023-04-01T07:27:29.121Z,11.84
2023-04-01T07:30:18.266Z,12.00
2023-04-01T07:33:10.118Z,11.73
2023-04-01T07:36:04.378Z,11.49
2023-04-01T07:39:03.833Z,11.44
2023-04-01T07:42:23.927Z,11.32
2023-04-01T07:45:21.725Z,11.17
2023-04-01T07:48:22.815Z,11.18
2023-04-01T07:51:17.148Z,11.27
2023-04-01T07:54:10.643Z,11.47
2023-04-01T07:57:04.375Z,11.68
2023-04-01T08:00:12.814Z,11.78
2023-04-01T08:03:31.559Z,11.61
2023-04-01T08:06:27.934Z,11.67
2023-04-01T08:09:21.698Z,11.65
2023-04-01T08:12:39.689Z,11.56
2023-04-01T08:15:55.535Z,11.75
2023-04-01T08:19:06.249Z,11.77
2023-04-01T08:21:57.185Z,11.71
2023-04-01T08:24:48.087Z,11.70
2023-04-01T08:27:46.261Z,11.69
2023-04-01T08:30:42.183Z,11.93
2023-04-01T08:33:31.741Z,11.82
2023-04-01T08:36:37.099Z,11.58
2023-04-01T08:39:54.847Z,11.60
2023-04-01T08:43:03.442Z,11.74
2023-04-01T08:46:03.113Z,11.75
2023-04-01T08:49:13.681Z,11.82
2023-04-01T08:52:21.677Z,11.86
2023-04-01T08:55:38.481Z,11.78
2023-04-01T08:58:59.403Z,11.57
2023-04-01T09:02:21.693Z,11.50
2023-04-01T09:05:34.396Z,11.47
2023-04-01T09:08:38.281Z,11.51
2023-04-01T09:11:48.064Z,11.63
2023-04-01T09:15:23.140Z,11.70
2023-04-01T09:18:26.973Z,11.27
2023-04-01T09:21:32.189Z,11.46
2023-04-01T09:24:50.638Z,11.64
2023-04-01T09:27:46.444Z,11.87
2023-04-01T09:31:03.552Z,12.08
2023-04-01T09:34:33.681Z,11.67
2023-04-01T09:37:36.214Z,11.66
2023-04-01T09:40:43.225Z,11.54
2023-04-01T09:43:51.332Z,11.03
2023-04-01T09:46:51.236Z,11.09
2023-04-01T09:50:03.005Z,11.38
2023-04-01T09:52:59.527Z,10.88
2023-04-01T09:56:26.544Z,11.26
2023-04-01T09:59:57.994Z,11.34
2023-04-01T10:03:35.872Z,11.78
2023-04-01T10:07:07.001Z,12.06
2023-04-01T10:10:30.538Z,12.08
2023-04-01T10:14:02.105Z,12.19
2023-04-01T10:17:38.917Z,11.76
2023-04-01T10:20:58.145Z,11.54
2023-04-01T10:24:19.508Z,11.60
2023-04-01T10:27:36.196Z,11.54
2023-04-01T10:31:09.896Z,11.73
2023-04-01T10:34:24.998Z,11.71
2023-04-01T10:37:25.648Z,11.59
2023-04-01T10:40:33.309Z,11.46
2023-04-01T10:44:09.331Z,11.49
2023-04-01T10:47:35.085Z,11.49
2023-04-01T10:50:51.900Z,11.26
2023-04-01T10:53:45.018Z,10.64
2023-04-01T10:57:02.259Z,10.89
2023-04-01T11:00:49.884Z,11.25
2023-04-01T11:05:05.740Z,10.76
2023-04-01T11:08:42.391Z,11.15
2023-04-01T11:12:06.104Z,11.19
2023-04-01T11:15:41.696Z,11.22
2023-04-01T11:19:08.921Z,11.23
2023-04-01T11:22:32.126Z,11.06
2023-04-01T11:25:31.865Z,11.01
2023-04-01T11:28:57.973Z,10.96
2023-04-01T11:32:01.349Z,11.02
2023-04-01T11:35:19.795Z,10.49
2023-04-01T11:38:20.180Z,10.49
2023-04-01T11:41:22.681Z,10.67
2023-04-01T11:44:50.308Z,10.85
2023-04-01T11:48:09.459Z,10.82
2023-04-01T11:51:10.126Z,10.47
2023-04-01T11:54:05.715Z,10.48
2023-04-01T11:57:06.359Z,10.72
2023-04-01T12:00:16.975Z,10.49
2023-04-01T12:03:23.841Z,10.63
2023-04-01T12:06:16.657Z,10.84
2023-04-01T12:09:12.589Z,11.15
2023-04-01T12:12:13.088Z,11.10
2023-04-01T12:15:17.475Z,10.69
2023-04-01T12:18:16.418Z,10.61
2023-04-01T12:21:18.374Z,10.36
2023-04-01T12:24:46.966Z,10.43
2023-04-01T12:27:52.414Z,10.53
2023-04-01T12:31:00.839Z,10.38
2023-04-01T12:33:58.860Z,10.37
2023-04-01T12:37:00.641Z,10.59
2023-04-01T12:40:00.151Z,10.47
2023-04-01T12:43:00.785Z,10.69
2023-04-01T12:45:54.214Z,10.72
2023-04-01T12:49:06.616Z,10.82
2023-04-01T12:52:05.217Z,10.46
2023-04-01T12:55:29.243Z,10.65
2023-04-01T12:58:57.498Z,10.80
2023-04-01T13:02:00.467Z,10.34
2023-04-01T13:04:59.616Z,10.55
2023-04-01T13:07:59.470Z,10.64
2023-04-01T13:11:05.000Z,10.18
2023-04-01T13:14:30.857Z,10.22
2023-04-01T13:17:25.063Z,10.09
2023-04-01T13:20:23.058Z,10.26
2023-04-01T13:23:20.046Z,10.73
2023-04-01T13:26:15.639Z,9.98
2023-04-01T13:29:07.957Z,10.85
2023-04-01T13:32:22.274Z,10.80
2023-04-01T13:35:24.654Z,10.34
2023-04-01T13:38:25.936Z,10.59
2023-04-01T13:41:24.121Z,10.53
2023-04-01T13:44:16.612Z,10.41
2023-04-01T13:47:41.841Z,10.81
2023-04-01T13:50:44.487Z,10.40
2023-04-01T13:53:58.504Z,10.60
2023-04-01T13:56:59.711Z,10.13
2023-04-01T14:00:19.151Z,10.05
2023-04-01T14:03:31.727Z,10.26
2023-04-01T14:06:30.157Z,9.74
2023-04-01T14:09:34.146Z,10.09
2023-04-01T14:12:32.204Z,10.46
2023-04-01T14:15:31.922Z,10.04
2023-04-01T14:18:40.646Z,9.64
2023-04-01T14:21:38.170Z,9.89
2023-04-01T14:24:46.856Z,10.20
2023-04-01T14:27:48.158Z,10.18
2023-04-01T14:30:47.465Z,10.48
2023-04-01T14:33:47.512Z,10.25
2023-04-01T14:36:49.980Z,10.03
2023-04-01T14:39:53.796Z,9.92
2023-04-01T14:43:06.129Z,9.99
2023-04-01T14:46:08.345Z,10.12
2023-04-01T14:48:58.419Z,10.10
2023-04-01T14:51:48.712Z,9.67
2023-04-01T14:54:39.777Z,9.89
2023-04-01T14:57:30.350Z,9.97
2023-04-01T15:00:19.688Z,9.73
2023-04-01T15:03:17.333Z,9.98
2023-04-01T15:06:28.067Z,9.94
2023-04-01T15:09:23.233Z,9.89
2023-04-01T15:12:22.693Z,9.83
2023-04-01T15:15:28.627Z,10.10
2023-04-01T15:18:21.074Z,10.18
2023-04-01T15:21:22.710Z,9.61
2023-04-01T15:24:15.833Z,9.54
2023-04-01T15:27:22.680Z,9.49
2023-04-01T15:30:23.806Z,9.63
2023-04-01T15:33:24.661Z,9.64
2023-04-01T15:36:27.359Z,9.54
2023-04-01T15:39:17.931Z,9.31
2023-04-01T15:42:23.244Z,9.30
2023-04-01T15:45:36.131Z,9.50
2023-04-01T15:48:33.546Z,9.21
2023-04-01T15:51:32.132Z,9.35
2023-04-01T15:54:34.745Z,9.08
2023-04-01T15:57:30.298Z,9.43
2023-04-01T16:00:28.278Z,9.22
2023-04-01T16:03:33.224Z,8.86
2023-04-01T16:06:37.800Z,8.95
2023-04-01T16:09:41.347Z,9.20
2023-04-01T16:12:44.922Z,8.99
2023-04-01T16:15:39.635Z,8.92
2023-04-01T16:18:42.956Z,9.08
2023-04-01T16:21:43.592Z,9.06
2023-04-01T16:24:36.875Z,9.07
2023-04-01T16:27:30.061Z,9.06
2023-04-01T16:30:37.058Z,8.96
2023-04-01T16:33:30.048Z,8.53
2023-04-01T16:36:28.414Z,8.91
2023-04-01T16:39:29.453Z,8.49
2023-04-01T16:42:41.229Z,8.84
2023-04-01T16:45:39.345Z,8.83
2023-04-01T16:48:36.255Z,8.70
2023-04-01T16:51:24.301Z,8.28
2023-04-01T16:54:18.439Z,8.34
2023-04-01T16:57:19.738Z,8.41
2023-04-01T17:00:22.610Z,8.25
2023-04-01T17:03:18.589Z,8.26
2023-04-01T17:06:27.444Z,8.43
2023-04-01T17:09:41.069Z,8.18
2023-04-01T17:12:33.716Z,7.70
2023-04-01T17:15:27.579Z,8.27
2023-04-01T17:18:24.701Z,7.72
2023-04-01T17:21:17.794Z,7.63
2023-04-01T17:24:21.119Z,8.05
2023-04-01T17:27:22.971Z,7.69
2023-04-01T17:30:24.729Z,8.01
2023-04-01T17:33:27.974Z,8.06
2023-04-01T17:36:27.185Z,7.99
2023-04-01T17:39:33.370Z,7.59
2023-04-01T17:42:28.025Z,7.33
2023-04-01T17:45:26.243Z,7.31
2023-04-01T17:48:26.754Z,7.62
2023-04-01T17:51:23.202Z,7.42
2023-04-01T17:54:24.245Z,7.43
2023-04-01T17:57:32.019Z,7.70
2023-04-01T18:00:35.300Z,7.41
2023-04-01T18:03:52.878Z,7.55
2023-04-01T18:06:52.883Z,7.75
2023-04-01T18:09:51.722Z,7.83
2023-04-01T18:12:53.850Z,7.56
2023-04-01T18:15:47.341Z,7.39
2023-04-01T18:18:56.584Z,7.51
2023-04-01T18:21:48.812Z,7.80
2023-04-01T18:24:43.017Z,7.48
2023-04-01T18:27:35.572Z,7.41
2023-04-01T18:30:28.311Z,7.30
2023-04-01T18:33:24.299Z,7.33
2023-04-01T18:36:26.198Z,7.37
2023-04-01T18:39:17.536Z,7.03
2023-04-01T18:42:13.069Z,7.04
2023-04-01T18:45:12.024Z,6.98
2023-04-01T18:48:10.713Z,6.83
2023-04-01T18:51:00.221Z,6.79
2023-04-01T18:53:55.939Z,6.86
2023-04-01T18:56:45.235Z,6.93
2023-04-01T18:59:36.801Z,6.92
2023-04-01T19:02:33.339Z,6.98
2023-04-01T19:05:25.445Z,6.86
2023-04-01T19:08:22.002Z,7.06
2023-04-01T19:11:19.820Z,6.77
2023-04-01T19:14:18.995Z,7.09
2023-04-01T19:17:17.984Z,7.06
2023-04-01T19:20:16.649Z,6.61
2023-04-01T19:23:32.723Z,6.88
2023-04-01T19:26:26.218Z,6.76
2023-04-01T19:29:27.985Z,6.47
2023-04-01T19:32:25.764Z,6.75
2023-04-01T19:35:28.479Z,6.67
2023-04-01T19:38:21.669Z,6.76
2023-04-01T19:41:23.015Z,6.53
2023-04-01T19:44:28.948Z,6.65
2023-04-01T19:47:25.985Z,6.77
2023-04-01T19:50:27.560Z,6.66
2023-04-01T19:53:23.062Z,6.78
2023-04-01T19:56:21.155Z,6.98
2023-04-01T19:59:25.085Z,6.53
2023-04-01T20:02:33.779Z,6.69
2023-04-01T20:05:42.273Z,6.78
2023-04-01T20:08:38.525Z,6.48
2023-04-01T20:11:50.437Z,6.74
2023-04-01T20:14:51.568Z,6.85
2023-04-01T20:17:45.767Z,6.50
2023-04-01T20:20:33.748Z,6.72
2023-04-01T20:23:42.171Z,6.41
2023-04-01T20:26:34.149Z,6.23
2023-04-01T20:29:44.348Z,6.61
2023-04-01T20:32:45.917Z,6.05
2023-04-01T20:35:52.729Z,6.23
2023-04-01T20:39:10.314Z,6.01
2023-04-01T20:42:15.323Z,6.30
2023-04-01T20:45:18.327Z,6.40
2023-04-01T20:48:29.831Z,6.44
2023-04-01T20:51:19.056Z,6.06
2023-04-01T20:54:20.503Z,6.31
2023-04-01T20:57:12.830Z,6.38
2023-04-01T21:00:26.527Z,6.46
2023-04-01T21:03:27.576Z,6.26
2023-04-01T21:06:52.090Z,6.11
2023-04-01T21:09:50.758Z,6.17
2023-04-01T21:12:50.074Z,6.20
2023-04-01T21:16:00.118Z,6.21
2023-04-01T21:19:15.040Z,6.41
2023-04-01T21:22:14.797Z,6.03
2023-04-01T21:25:31.944Z,6.21
2023-04-01T21:28:41.354Z,6.27
2023-04-01T21:31:43.788Z,6.04
2023-04-01T21:34:52.934Z,6.06
2023-04-01T21:37:52.822Z,6.19
2023-04-01T21:41:13.476Z,6.25
2023-04-01T21:44:39.447Z,6.15
2023-04-01T21:47:57.421Z,6.09
2023-04-01T21:51:08.740Z,6.48
2023-04-01T21:54:30.369Z,6.42
2023-04-01T21:57:51.672Z,6.46
2023-04-01T22:00:40.843Z,6.36
2023-04-01T22:03:57.466Z,6.16
2023-04-01T22:06:51.488Z,6.50
2023-04-01T22:09:42.644Z,6.53
2023-04-01T22:12:38.422Z,6.51
2023-04-01T22:15:47.903Z,6.74
2023-04-01T22:18:39.985Z,6.42
2023-04-01T22:21:35.644Z,6.43
2023-04-01T22:24:30.818Z,6.50
2023-04-01T22:27:26.065Z,6.39
2023-04-01T22:30:22.567Z,6.32
2023-04-01T22:33:16.662Z,6.64
2023-04-01T22:36:13.708Z,6.53
2023-04-01T22:39:20.374Z,6.67
2023-04-01T22:42:23.884Z,6.29
2023-04-01T22:45:33.903Z,5.89
2023-04-01T22:48:29.282Z,6.53
2023-04-01T22:51:21.153Z,6.27
2023-04-01T22:54:17.695Z,6.51
2023-04-01T22:57:07.009Z,6.35
2023-04-01T23:00:00.900Z,5.96
2023-04-01T23:02:52.737Z,6.09
2023-04-01T23:05:49.626Z,6.22
2023-04-01T23:09:16.009Z,6.43
2023-04-01T23:12:07.505Z,6.03
2023-04-01T23:14:56.509Z,5.96
2023-04-01T23:17:55.832Z,6.24
2023-04-01T23:20:56.094Z,6.32
2023-04-01T23:23:51.915Z,6.09
2023-04-01T23:26:48.592Z,6.21
2023-04-01T23:29:40.929Z,5.88
2023-04-01T23:32:28.657Z,5.75
2023-04-01T23:35:18.905Z,5.99
2023-04-01T23:38:05.885Z,5.86
2023-04-01T23:40:55.754Z,5.79
2023-04-01T23:43:44.881Z,6.15
2023-04-01T23:46:36.524Z,6.19
2023-04-01T23:49:27.572Z,5.83
2023-04-01T23:52:19.208Z,5.87
2023-04-01T23:55:15.404Z,5.72
2023-04-01T23:58:16.978Z,5.69
